Time;durP1;ratioP1;P1;durP2;ratioP2;P2;SDS_P1;SDS_P2;PMS_P1;PMS_P2;Temp;Humidity;BMP_temperature;BMP_pressure;BME280_temperature;BME280_humidity;BME280_pressure;Samples;Min_cycle;Max_cycle;Signal;HPM_P1;HPM_P2
2022/03/23 00:04:36;;;;;;;24.40;20.30;;;7.20;1.00;;;;;;4929784;28;21228;-77
2022/03/23 00:07:17;;;;;;;24.73;19.53;;;7.20;1.00;;;;;;4933891;28;20309;-81
2022/03/23 00:09:46;;;;;;;28.42;21.40;;;7.10;1.00;;;;;;4926563;28;20520;-80
2022/03/23 00:12:16;;;;;;;25.38;19.70;;;7.10;1.00;;;;;;4924585;28;20225;-81
2022/03/23 00:14:45;;;;;;;25.58;20.67;;;7.00;1.00;;;;;;4933799;28;20309;-79
2022/03/23 00:17:18;;;;;;;27.20;21.27;;;6.90;1.00;;;;;;4929714;28;20253;-81
2022/03/23 00:19:45;;;;;;;26.15;19.02;;;6.90;1.00;;;;;;4928483;28;20245;-78
2022/03/23 00:22:27;;;;;;;24.42;19.98;;;6.80;1.00;;;;;;4929205;28;20237;-81
2022/03/23 00:24:58;;;;;;;27.60;21.40;;;6.80;1.00;;;;;;4928861;28;20238;-80
2022/03/23 00:27:25;;;;;;;25.15;19.63;;;6.80;1.00;;;;;;4927195;28;20954;-79
2022/03/23 00:30:04;;;;;;;26.15;21.20;;;6.80;1.00;;;;;;4928646;28;20277;-79
2022/03/23 00:32:37;;;;;;;24.92;22.02;;;6.70;1.00;;;;;;4898597;29;20292;-82
2022/03/23 00:35:05;;;;;;;25.35;20.40;;;6.80;1.00;;;;;;4932016;28;20287;-80
2022/03/23 00:37:36;;;;;;;22.27;19.00;;;6.70;1.00;;;;;;4926624;28;20289;-82
2022/03/23 00:40:04;;;;;;;23.77;19.75;;;6.70;1.00;;;;;;4928212;28;20237;-81
2022/03/23 00:42:35;;;;;;;22.85;19.00;;;6.70;1.00;;;;;;4930555;28;20302;-81
2022/03/23 00:45:04;;;;;;;23.27;20.25;;;6.70;1.00;;;;;;4932300;28;20779;-80
2022/03/23 00:47:41;;;;;;;26.40;21.50;;;6.60;1.00;;;;;;4926948;28;20242;-81
2022/03/23 00:50:18;;;;;;;25.63;20.52;;;6.50;1.00;;;;;;4918894;28;20327;-79
2022/03/23 00:52:47;;;;;;;25.88;18.88;;;6.30;1.00;;;;;;4926981;28;20431;-81
2022/03/23 00:55:16;;;;;;;27.88;21.92;;;6.20;1.00;;;;;;4925202;28;20253;-79
2022/03/23 00:57:48;;;;;;;26.17;20.92;;;6.20;1.00;;;;;;4926756;28;20240;-81
2022/03/23 01:00:20;;;;;;;27.52;23.05;;;6.20;1.00;;;;;;4928663;28;20226;-80
2022/03/23 01:02:55;;;;;;;24.75;21.00;;;6.10;1.00;;;;;;4928426;28;21154;-81
2022/03/23 01:05:27;;;;;;;23.75;21.25;;;6.10;1.00;;;;;;4921096;28;20245;-79
2022/03/23 01:07:57;;;;;;;21.55;19.25;;;6.00;1.00;;;;;;4923653;28;20246;-81
2022/03/23 01:10:27;;;;;;;23.88;21.33;;;5.90;1.00;;;;;;4927114;28;20297;-78
2022/03/23 01:12:57;;;;;;;23.02;20.50;;;5.90;1.00;;;;;;4928797;28;20242;-81
2022/03/23 01:15:29;;;;;;;25.42;19.92;;;6.00;1.00;;;;;;4928278;28;20234;-81
2022/03/23 01:17:57;;;;;;;26.90;21.23;;;6.00;1.00;;;;;;4927053;28;20230;-79
2022/03/23 01:20:37;;;;;;;23.08;19.20;;;6.00;1.00;;;;;;4932902;28;20243;-83
2022/03/23 01:23:16;;;;;;;26.13;21.50;;;5.90;1.00;;;;;;4924288;28;20313;-83
2022/03/23 01:25:48;;;;;;;26.08;19.73;;;5.90;1.00;;;;;;4929969;28;20245;-80
2022/03/23 01:28:18;;;;;;;23.38;20.95;;;5.80;1.00;;;;;;4927597;28;20242;-84
2022/03/23 01:30:48;;;;;;;23.83;18.65;;;5.70;1.00;;;;;;4932836;28;20222;-81
2022/03/23 01:33:27;;;;;;;22.45;19.73;;;5.80;1.00;;;;;;4930358;28;20497;-82
2022/03/23 01:36:06;;;;;;;22.60;18.42;;;5.80;1.00;;;;;;4932084;28;20234;-82
2022/03/23 01:38:36;;;;;;;24.10;18.83;;;5.80;1.00;;;;;;4933684;28;20261;-79
2022/03/23 01:41:06;;;;;;;22.73;19.45;;;5.80;1.00;;;;;;4935020;28;20293;-79
2022/03/23 01:43:38;;;;;;;23.13;18.67;;;5.90;1.00;;;;;;4938929;28;20289;-77
2022/03/23 01:46:05;;;;;;;20.88;18.75;;;5.90;1.00;;;;;;4939026;28;20249;-77
2022/03/23 01:48:42;;;;;;;22.80;19.38;;;5.90;1.00;;;;;;4930331;28;20242;-78
2022/03/23 01:51:15;;;;;;;20.58;18.50;;;5.80;1.00;;;;;;4934669;28;21097;-80
2022/03/23 01:53:42;;;;;;;20.02;17.17;;;5.80;1.00;;;;;;4932116;28;20271;-80
2022/03/23 01:56:18;;;;;;;22.65;19.25;;;5.80;1.00;;;;;;4927899;28;20241;-76
2022/03/23 01:58:45;;;;;;;22.92;19.90;;;5.80;1.00;;;;;;4917279;28;20233;-81
2022/03/23 02:01:21;;;;;;;22.00;19.70;;;5.70;1.00;;;;;;4923926;28;20245;-76
2022/03/23 02:03:57;;;;;;;22.15;19.75;;;5.70;1.00;;;;;;4931934;28;20226;-82
2022/03/23 02:06:23;;;;;;;22.40;19.38;;;5.80;1.00;;;;;;4944492;28;20300;-77
2022/03/23 02:09:02;;;;;;;25.77;20.90;;;5.70;1.00;;;;;;4931956;28;20244;-78
2022/03/23 02:11:36;;;;;;;22.63;20.23;;;5.70;1.00;;;;;;4935455;28;20230;-78
2022/03/23 02:14:06;;;;;;;23.33;20.73;;;5.60;1.00;;;;;;4934611;28;20356;-81
2022/03/23 02:16:42;;;;;;;22.30;19.60;;;5.60;1.00;;;;;;4936903;28;20226;-77
2022/03/23 02:19:22;;;;;;;22.67;20.30;;;5.50;1.00;;;;;;4936381;28;20713;-79
2022/03/23 02:21:58;;;;;;;25.63;20.13;;;5.50;1.00;;;;;;4929201;28;20238;-76
2022/03/23 02:24:26;;;;;;;22.27;19.67;;;5.40;1.00;;;;;;4926455;28;20229;-76
2022/03/23 02:26:57;;;;;;;21.45;18.88;;;5.30;1.00;;;;;;4933909;28;20238;-80
2022/03/23 02:29:26;;;;;;;22.83;20.33;;;5.40;1.00;;;;;;4934843;28;21146;-80
2022/03/23 02:31:58;;;;;;;23.15;20.33;;;5.40;1.00;;;;;;4938834;28;20350;-78
2022/03/23 02:34:25;;;;;;;24.80;18.90;;;5.40;1.00;;;;;;4928455;28;20237;-76
2022/03/23 02:36:57;;;;;;;23.17;19.92;;;5.40;1.00;;;;;;4935886;28;20236;-77
2022/03/23 02:39:25;;;;;;;27.55;21.30;;;5.30;1.00;;;;;;4923116;28;20248;-76
2022/03/23 02:41:58;;;;;;;24.30;21.40;;;5.30;1.00;;;;;;4923748;28;21148;-79
2022/03/23 02:44:26;;;;;;;26.23;21.25;;;5.20;1.00;;;;;;4930502;28;20244;-79
2022/03/23 02:46:56;;;;;;;24.17;20.60;;;5.20;1.00;;;;;;4946918;28;20253;-80
2022/03/23 02:49:24;;;;;;;23.70;21.20;;;5.20;1.00;;;;;;4947226;28;20231;-76
2022/03/23 02:52:03;;;;;;;23.48;20.98;;;5.10;1.00;;;;;;4943501;28;20243;-78
2022/03/23 03:03:36;;;;;;;25.48;21.50;;;5.00;1.00;;;;;;4927126;28;20214;-80
2022/03/23 03:06:04;;;;;;;25.90;20.17;;;4.90;1.00;;;;;;4930870;28;20287;-78
2022/03/23 03:08:47;;;;;;;25.95;21.38;;;4.90;1.00;;;;;;4932079;28;20241;-81
2022/03/23 03:11:18;;;;;;;24.02;21.48;;;4.80;1.00;;;;;;4930924;28;20245;-78
2022/03/23 03:13:49;;;;;;;28.92;22.60;;;4.80;1.00;;;;;;4919853;28;20225;-78
2022/03/23 03:16:27;;;;;;;26.65;21.20;;;4.70;1.00;;;;;;4926995;28;20249;-82
2022/03/23 03:18:56;;;;;;;23.67;20.13;;;4.70;1.00;;;;;;4925186;28;20217;-78
2022/03/23 03:21:23;;;;;;;24.42;21.73;;;4.70;1.00;;;;;;4929715;28;20285;-77
2022/03/23 03:24:07;;;;;;;24.80;21.25;;;4.70;1.00;;;;;;4926326;28;20245;-79
2022/03/23 03:26:37;;;;;;;25.75;20.27;;;4.70;1.00;;;;;;4932705;28;20214;-81
2022/03/23 03:29:05;;;;;;;24.85;22.17;;;4.70;1.00;;;;;;4929346;28;20244;-81
2022/03/23 03:31:41;;;;;;;23.98;21.10;;;4.70;1.00;;;;;;4931594;28;20298;-78
2022/03/23 03:34:08;;;;;;;24.88;19.90;;;4.70;1.00;;;;;;4928186;28;20400;-81
2022/03/23 03:36:37;;;;;;;27.73;22.70;;;4.60;1.00;;;;;;4935926;28;20242;-78
2022/03/23 03:39:06;;;;;;;24.77;20.05;;;4.50;1.00;;;;;;4938175;28;20253;-78
2022/03/23 03:41:36;;;;;;;24.77;21.02;;;4.50;1.00;;;;;;4952063;28;20246;-80
2022/03/23 03:44:03;;;;;;;24.67;20.40;;;4.50;1.00;;;;;;4955652;28;20308;-80
2022/03/23 03:46:40;;;;;;;24.17;20.88;;;4.40;1.00;;;;;;4990319;23;20224;-81
2022/03/23 03:49:07;;;;;;;27.60;21.33;;;4.40;1.00;;;;;;4991989;28;20223;-76
2022/03/23 03:51:36;;;;;;;33.25;22.17;;;4.30;1.00;;;;;;4992856;28;20439;-78
2022/03/23 03:54:03;;;;;;;31.92;22.77;;;4.30;1.00;;;;;;4986611;28;20216;-77
2022/03/23 03:56:38;;;;;;;23.08;20.25;;;4.20;1.00;;;;;;4972756;23;20248;-80
2022/03/23 03:59:05;;;;;;;24.08;20.05;;;4.30;1.00;;;;;;4953427;28;20237;-80
2022/03/23 04:01:37;;;;;;;27.45;20.40;;;4.30;1.00;;;;;;4951875;28;20232;-77
2022/03/23 04:04:06;;;;;;;28.45;22.33;;;4.20;1.00;;;;;;4953333;28;20237;-76
2022/03/23 04:06:38;;;;;;;24.67;21.25;;;4.20;1.00;;;;;;4958628;23;20362;-76
2022/03/23 04:09:05;;;;;;;30.65;21.98;;;4.10;1.00;;;;;;4956804;28;20300;-77
2022/03/23 04:11:38;;;;;;;25.27;21.40;;;4.10;1.00;;;;;;4949179;28;20239;-76
2022/03/23 04:14:05;;;;;;;27.25;21.70;;;4.10;1.00;;;;;;4948389;28;20258;-77
2022/03/23 04:16:35;;;;;;;27.42;22.50;;;4.10;1.00;;;;;;4928993;28;20234;-77
2022/03/23 04:19:06;;;;;;;26.52;21.65;;;4.10;1.00;;;;;;4927154;28;20245;-78
2022/03/23 04:21:37;;;;;;;28.60;21.73;;;4.10;1.00;;;;;;4929327;28;20478;-77
2022/03/23 04:24:04;;;;;;;28.70;22.02;;;4.00;1.00;;;;;;4933186;28;20239;-78
2022/03/23 04:26:36;;;;;;;27.27;22.30;;;4.00;1.00;;;;;;4980229;23;20264;-80
2022/03/23 04:29:04;;;;;;;25.27;21.50;;;4.00;1.00;;;;;;4966289;28;20245;-77
2022/03/23 04:31:38;;;;;;;27.58;23.40;;;3.90;1.00;;;;;;4962253;28;20267;-81
2022/03/23 04:34:05;;;;;;;27.50;22.60;;;4.00;1.00;;;;;;4967933;28;20231;-77
2022/03/23 04:36:37;;;;;;;27.05;22.48;;;3.90;1.00;;;;;;4949572;28;21116;-77
2022/03/23 04:39:04;;;;;;;28.65;22.88;;;3.90;1.00;;;;;;4943266;28;20310;-78
2022/03/23 04:41:30;;;;;;;26.50;22.08;;;3.90;1.00;;;;;;4954966;28;20237;-80
2022/03/23 04:43:57;;;;;;;30.35;23.67;;;3.90;1.00;;;;;;4952531;28;20363;-78
2022/03/23 04:46:25;;;;;;;32.13;22.98;;;3.90;1.00;;;;;;4985290;23;20231;-79
2022/03/23 04:48:58;;;;;;;30.23;22.42;;;3.90;1.00;;;;;;4967497;28;20248;-78
2022/03/23 04:51:26;;;;;;;30.52;23.65;;;4.00;1.00;;;;;;4969967;28;20224;-76
2022/03/23 04:54:00;;;;;;;31.85;22.85;;;4.00;1.00;;;;;;4973471;28;20283;-79
2022/03/23 04:56:36;;;;;;;29.90;22.73;;;4.00;1.00;;;;;;4948262;28;20387;-78
2022/03/23 04:59:08;;;;;;;29.73;23.13;;;4.10;1.00;;;;;;4952382;28;20231;-80
2022/03/23 05:01:39;;;;;;;29.83;22.83;;;4.10;1.00;;;;;;4948554;28;20750;-80
2022/03/23 05:04:06;;;;;;;29.35;23.20;;;4.10;1.00;;;;;;4944142;28;20233;-80
2022/03/23 05:06:37;;;;;;;40.30;24.02;;;4.20;1.00;;;;;;4950774;23;20241;-77
2022/03/23 05:09:04;;;;;;;30.45;21.45;;;4.10;1.00;;;;;;4944783;28;20324;-80
2022/03/23 05:11:30;;;;;;;30.95;23.17;;;4.10;1.00;;;;;;4959649;28;20269;-82
2022/03/23 05:13:57;;;;;;;27.15;22.17;;;4.10;1.00;;;;;;4967124;28;20223;-81
2022/03/23 05:16:24;;;;;;;34.00;23.88;;;4.10;1.00;;;;;;4950261;28;20225;-81
2022/03/23 05:18:58;;;;;;;30.73;22.42;;;4.10;1.00;;;;;;4945647;28;20230;-78
2022/03/23 05:21:26;;;;;;;33.42;27.33;;;4.10;1.00;;;;;;4940031;28;20237;-78
2022/03/23 05:23:59;;;;;;;30.95;22.98;;;4.00;1.00;;;;;;4937311;28;20242;-81
2022/03/23 05:26:26;;;;;;;30.55;22.40;;;4.00;1.00;;;;;;4975619;23;20234;-77
2022/03/23 05:28:56;;;;;;;54.60;39.55;;;4.00;1.00;;;;;;4947895;28;20241;-77
2022/03/23 05:31:23;;;;;;;32.10;25.55;;;4.00;1.00;;;;;;4948345;28;20241;-80
2022/03/23 05:33:49;;;;;;;29.05;23.50;;;3.90;1.00;;;;;;4945310;28;20320;-78
2022/03/23 05:36:25;;;;;;;35.05;25.38;;;3.90;1.00;;;;;;4928183;28;20229;-77
2022/03/23 05:38:51;;;;;;;28.50;22.50;;;3.90;1.00;;;;;;4929539;28;20229;-78
2022/03/23 05:41:23;;;;;;;35.08;23.30;;;3.90;1.00;;;;;;4925366;28;20237;-78
2022/03/23 05:43:50;;;;;;;27.90;23.92;;;3.90;1.00;;;;;;4930781;28;21281;-79
2022/03/23 05:46:23;;;;;;;40.67;25.00;;;3.90;1.00;;;;;;4932244;28;20275;-80
2022/03/23 05:48:50;;;;;;;30.60;23.90;;;3.90;1.00;;;;;;4930087;28;20238;-79
2022/03/23 05:51:24;;;;;;;35.55;24.02;;;3.90;1.00;;;;;;4933248;28;20241;-77
2022/03/23 05:53:54;;;;;;;46.20;31.52;;;3.90;1.00;;;;;;4928057;28;20244;-76
2022/03/23 05:56:24;;;;;;;33.53;25.65;;;4.00;1.00;;;;;;4926266;28;20232;-75
2022/03/23 05:59:04;;;;;;;39.92;24.80;;;4.10;1.00;;;;;;4941449;28;20238;-77
2022/03/23 06:01:45;;;;;;;34.45;23.23;;;4.20;1.00;;;;;;4927644;28;20261;-79
2022/03/23 06:04:12;;;;;;;34.85;23.20;;;4.30;1.00;;;;;;4932541;28;20245;-76
2022/03/23 06:06:42;;;;;;;32.75;23.50;;;4.50;1.00;;;;;;4932036;28;20298;-77
2022/03/23 06:09:19;;;;;;;32.85;23.70;;;4.60;1.00;;;;;;4925301;28;20245;-78
2022/03/23 06:11:46;;;;;;;29.40;23.55;;;4.80;1.00;;;;;;4920773;28;20300;-77
2022/03/23 06:14:16;;;;;;;29.42;22.23;;;5.00;1.00;;;;;;4923697;28;20226;-77
2022/03/23 06:16:43;;;;;;;25.00;21.30;;;5.20;1.00;;;;;;4923217;28;20685;-77
2022/03/23 06:19:15;;;;;;;30.20;23.17;;;5.30;1.00;;;;;;4927728;28;20782;-80
2022/03/23 06:21:46;;;;;;;29.95;24.30;;;5.50;1.00;;;;;;4923473;28;20218;-80
2022/03/23 06:24:14;;;;;;;30.42;23.90;;;5.60;1.00;;;;;;4926838;28;21215;-77
2022/03/23 06:26:47;;;;;;;28.75;23.33;;;5.80;1.00;;;;;;4933325;28;20282;-79
2022/03/23 06:29:16;;;;;;;26.45;22.08;;;6.00;1.00;;;;;;4927533;28;21149;-78
2022/03/23 06:31:43;;;;;;;24.65;21.75;;;6.10;1.00;;;;;;4930545;28;20273;-77
2022/03/23 06:34:14;;;;;;;28.30;22.30;;;6.30;1.00;;;;;;4924285;28;20577;-77
2022/03/23 06:36:41;;;;;;;26.25;21.92;;;6.40;1.00;;;;;;4924174;28;20245;-78
2022/03/23 06:39:17;;;;;;;27.55;23.63;;;6.60;1.00;;;;;;4929308;28;20307;-79
2022/03/23 06:41:43;;;;;;;37.60;24.67;;;6.70;1.00;;;;;;4923886;28;20240;-76
2022/03/23 06:44:17;;;;;;;30.98;22.92;;;6.90;1.00;;;;;;4937230;28;20226;-79
2022/03/23 06:46:44;;;;;;;26.00;22.83;;;7.00;1.00;;;;;;4938955;28;20248;-77
2022/03/23 06:49:13;;;;;;;31.00;25.38;;;7.20;1.00;;;;;;4929639;28;20246;-81
2022/03/23 06:51:40;;;;;;;31.52;24.13;;;7.20;1.00;;;;;;4933951;28;20229;-79
2022/03/23 06:54:07;;;;;;;34.00;24.57;;;7.30;1.00;;;;;;4934167;28;21117;-76
2022/03/23 06:56:35;;;;;;;29.40;25.35;;;7.50;1.00;;;;;;4935990;28;20430;-75
2022/03/23 06:59:04;;;;;;;29.25;26.05;;;7.60;1.00;;;;;;4929067;28;20237;-77
2022/03/23 07:01:37;;;;;;;27.63;23.02;;;7.70;1.00;;;;;;4930686;28;20249;-79
2022/03/23 07:04:03;;;;;;;30.00;25.60;;;7.80;1.00;;;;;;4929931;28;22794;-76
2022/03/23 07:06:34;;;;;;;33.58;24.80;;;8.00;1.00;;;;;;4924281;28;20470;-78
2022/03/23 07:12:13;;;;;;;33.35;24.52;;;8.30;1.00;;;;;;4922241;28;20238;-77
2022/03/23 07:14:41;;;;;;;29.60;22.90;;;8.50;1.00;;;;;;4932130;28;20261;-77
2022/03/23 07:17:18;;;;;;;28.83;24.50;;;8.60;1.00;;;;;;4932102;28;20470;-76
2022/03/23 07:19:46;;;;;;;28.40;25.30;;;8.70;1.00;;;;;;4925139;28;20492;-77
2022/03/23 07:22:17;;;;;;;31.93;24.30;;;8.70;1.00;;;;;;4924612;28;20442;-77
2022/03/23 07:24:44;;;;;;;27.33;24.30;;;8.80;1.00;;;;;;4928990;28;20430;-76
2022/03/23 07:27:17;;;;;;;27.93;24.83;;;9.00;1.00;;;;;;4929244;28;20609;-77
2022/03/23 07:29:43;;;;;;;29.70;25.60;;;9.20;1.00;;;;;;4930117;28;20470;-77
2022/03/23 07:32:13;;;;;;;34.20;26.10;;;9.20;1.00;;;;;;4935462;28;20631;-76
2022/03/23 07:34:40;;;;;;;30.80;25.50;;;9.30;1.00;;;;;;4949646;28;20465;-75
2022/03/23 07:37:07;;;;;;;31.33;25.23;;;9.40;1.00;;;;;;4945504;28;20438;-76
2022/03/23 07:39:34;;;;;;;34.00;25.83;;;9.40;1.00;;;;;;4951533;28;20446;-75
2022/03/23 07:42:02;;;;;;;30.35;25.50;;;9.50;1.00;;;;;;4943511;28;20435;-75
2022/03/23 07:44:34;;;;;;;33.03;25.03;;;9.60;1.00;;;;;;4949826;28;20367;-79
2022/03/23 07:47:00;;;;;;;32.53;25.40;;;9.70;1.00;;;;;;4943610;28;20426;-79
2022/03/23 07:49:27;;;;;;;30.80;24.57;;;9.90;1.00;;;;;;4931067;28;20489;-78
2022/03/23 07:52:02;;;;;;;30.33;25.10;;;10.10;1.00;;;;;;4921521;28;20478;-78
2022/03/23 07:54:32;;;;;;;25.40;22.80;;;10.20;1.00;;;;;;4928253;28;20431;-76
2022/03/23 07:56:59;;;;;;;29.27;24.73;;;10.40;1.00;;;;;;4932416;28;21612;-79
2022/03/23 07:59:26;;;;;;;29.60;24.37;;;10.60;1.00;;;;;;4925285;28;20461;-76
2022/03/23 08:01:55;;;;;;;27.90;24.83;;;10.70;1.00;;;;;;4933416;28;20414;-76
2022/03/23 08:04:22;;;;;;;28.43;23.17;;;10.80;1.00;;;;;;4930577;28;20438;-79
2022/03/23 08:06:53;;;;;;;27.73;23.17;;;10.90;1.00;;;;;;4927484;28;20511;-77
2022/03/23 08:09:20;;;;;;;28.80;23.20;;;11.10;1.00;;;;;;4926820;28;20469;-79
2022/03/23 08:11:47;;;;;;;29.10;22.80;;;11.10;1.00;;;;;;4931570;28;20454;-77
2022/03/23 08:14:14;;;;;;;29.40;22.40;;;11.20;1.00;;;;;;4935047;28;20446;-78
2022/03/23 08:16:40;;;;;;;27.67;22.33;;;11.40;1.00;;;;;;4924434;28;20470;-75
2022/03/23 08:19:11;;;;;;;24.87;21.73;;;11.50;1.00;;;;;;4934444;28;20558;-77
2022/03/23 08:21:38;;;;;;;33.13;29.83;;;11.60;1.00;;;;;;4937523;28;20441;-80
2022/03/23 08:24:06;;;;;;;25.13;22.40;;;11.80;1.00;;;;;;4934051;28;20462;-77
2022/03/23 08:26:36;;;;;;;26.23;23.43;;;11.90;1.00;;;;;;4924427;28;20494;-77
2022/03/23 08:29:03;;;;;;;26.33;22.27;;;12.10;1.00;;;;;;4934259;28;21395;-79
2022/03/23 08:31:36;;;;;;;23.77;21.27;;;12.30;1.00;;;;;;4924258;28;20477;-81
2022/03/23 08:34:03;;;;;;;27.40;21.80;;;12.40;1.00;;;;;;4924361;28;20857;-79
2022/03/23 08:36:34;;;;;;;25.57;21.43;;;12.50;1.00;;;;;;4938440;28;20418;-77
2022/03/23 08:39:04;;;;;;;25.50;22.23;;;12.70;1.00;;;;;;4932550;28;20474;-79
2022/03/23 08:41:33;;;;;;;27.80;22.50;;;12.80;1.00;;;;;;4928708;28;20756;-78
2022/03/23 08:44:00;;;;;;;23.77;21.20;;;13.00;1.00;;;;;;4927825;28;20483;-79
2022/03/23 08:46:27;;;;;;;27.00;22.20;;;13.10;1.00;;;;;;4933445;28;20463;-78
2022/03/23 08:48:54;;;;;;;24.40;21.10;;;13.20;1.00;;;;;;4930612;28;20426;-79
2022/03/23 08:51:21;;;;;;;21.70;19.40;;;13.40;1.00;;;;;;4917849;28;21077;-80
2022/03/23 08:53:54;;;;;;;24.27;21.57;;;13.50;1.00;;;;;;4922171;28;20487;-79
2022/03/23 08:56:20;;;;;;;25.00;22.40;;;13.70;1.00;;;;;;4918545;28;20482;-80
2022/03/23 08:58:49;;;;;;;25.67;22.93;;;13.90;1.00;;;;;;4924843;28;21346;-79
2022/03/23 09:01:16;;;;;;;25.63;22.93;;;14.10;1.00;;;;;;4928211;28;20490;-80
2022/03/23 09:03:43;;;;;;;26.00;23.40;;;14.20;1.00;;;;;;4930117;28;20477;-80
2022/03/23 09:06:14;;;;;;;26.70;23.00;;;14.30;1.00;;;;;;4935209;28;20420;-82
2022/03/23 09:08:41;;;;;;;22.70;20.47;;;14.40;1.00;;;;;;4936340;28;20529;-77
2022/03/23 09:11:14;;;;;;;22.07;19.90;;;14.60;1.00;;;;;;4928045;28;20572;-78
2022/03/23 09:13:44;;;;;;;24.97;22.27;;;14.70;1.00;;;;;;4934790;28;20433;-77
2022/03/23 09:16:15;;;;;;;23.40;20.90;;;15.00;1.00;;;;;;4940506;28;20422;-78
2022/03/23 09:18:41;;;;;;;24.37;21.67;;;15.10;1.00;;;;;;4939437;28;20450;-78
2022/03/23 09:21:08;;;;;;;25.83;20.17;;;15.30;1.00;;;;;;4925481;28;23531;-76
2022/03/23 09:23:36;;;;;;;22.50;20.07;;;16.00;1.00;;;;;;4928287;28;20526;-78
2022/03/23 09:26:03;;;;;;;22.07;19.90;;;17.40;1.00;;;;;;4919542;28;20448;-76
2022/03/23 09:28:39;;;;;;;25.73;21.50;;;19.30;1.00;;;;;;4925106;28;20467;-77
2022/03/23 09:31:06;;;;;;;22.80;20.50;;;20.90;1.00;;;;;;4926525;28;20465;-78
2022/03/23 09:33:35;;;;;;;23.30;20.97;;;22.40;1.00;;;;;;4937325;28;20469;-76
2022/03/23 09:36:02;;;;;;;23.57;21.20;;;23.50;1.00;;;;;;4935724;28;20425;-78
2022/03/23 09:38:34;;;;;;;23.97;21.40;;;24.00;1.00;;;;;;4941104;28;20585;-78
2022/03/23 09:41:00;;;;;;;24.13;21.87;;;24.40;1.00;;;;;;4942038;28;20473;-77
2022/03/23 09:43:32;;;;;;;25.40;22.63;;;25.10;1.00;;;;;;4935979;28;20454;-76
2022/03/23 09:46:00;;;;;;;22.97;20.63;;;25.40;1.00;;;;;;4934753;28;20784;-77
2022/03/23 09:48:32;;;;;;;23.13;20.77;;;26.10;1.00;;;;;;4935852;28;20446;-77
2022/03/23 09:51:04;;;;;;;23.50;21.17;;;26.90;1.00;;;;;;4933421;28;20497;-78
2022/03/23 09:53:34;;;;;;;22.70;20.80;;;27.70;1.00;;;;;;4928840;28;21305;-78
2022/03/23 09:56:05;;;;;;;22.43;20.33;;;28.20;1.00;;;;;;4927825;28;20458;-77
2022/03/23 09:58:37;;;;;;;23.07;20.90;;;28.30;1.00;;;;;;4931096;28;20458;-79
2022/03/23 10:01:38;;;;;;;;;;;;;;;;;;;;;
2022/03/23 10:04:08;;;;;;;24.23;21.77;;;27.70;1.00;;;;;;4889660;28;38428;-78
2022/03/23 10:06:57;;;;;;;23.47;21.17;;;28.10;1.00;;;;;;4929068;28;20510;-78
2022/03/23 10:10:04;;;;;;;23.77;21.40;;;28.50;1.00;;;;;;4927958;28;20537;-77
2022/03/23 10:13:09;;;;;;;28.53;21.80;;;28.90;1.00;;;;;;4929530;28;20493;-78
2022/03/23 10:16:14;;;;;;;24.63;21.90;;;29.20;1.00;;;;;;4938467;28;20486;-77
2022/03/23 10:18:55;;;;;;;23.30;21.20;;;29.60;1.00;;;;;;4923680;28;20442;-78
2022/03/23 10:21:24;;;;;;;23.77;21.37;;;30.70;1.00;;;;;;4931034;28;20553;-78
2022/03/23 10:24:14;;;;;;;24.63;22.03;;;31.20;1.00;;;;;;4924429;28;21284;-78
2022/03/23 10:26:42;;;;;;;23.17;21.27;;;31.10;1.00;;;;;;4925706;28;21468;-77
2022/03/23 10:29:20;;;;;;;22.40;20.30;;;30.70;1.00;;;;;;4928879;28;20489;-78
2022/03/23 10:31:47;;;;;;;23.23;21.03;;;30.40;1.00;;;;;;4923251;28;20485;-77
2022/03/23 10:34:16;;;;;;;22.57;20.57;;;30.20;1.00;;;;;;4924705;28;20406;-78
2022/03/23 10:36:56;;;;;;;25.20;22.90;;;29.90;1.00;;;;;;4925161;28;20438;-79
2022/03/23 10:39:37;;;;;;;25.00;21.43;;;30.20;1.00;;;;;;4927889;28;20465;-78
2022/03/23 10:42:13;;;;;;;24.73;22.40;;;30.90;1.00;;;;;;4924800;28;20466;-78
2022/03/23 10:44:40;;;;;;;23.00;20.80;;;31.70;1.00;;;;;;4927109;28;20465;-77
2022/03/23 10:47:07;;;;;;;23.40;21.00;;;32.10;1.00;;;;;;4920969;28;20450;-78
2022/03/23 10:49:38;;;;;;;23.00;20.83;;;32.40;1.00;;;;;;4926664;28;20514;-76
2022/03/23 10:52:16;;;;;;;24.33;22.03;;;32.70;1.00;;;;;;4928330;28;20461;-77
2022/03/23 10:54:56;;;;;;;22.23;20.33;;;32.70;1.00;;;;;;4926300;28;20517;-78
2022/03/23 10:57:55;;;;;;;23.50;21.30;;;32.60;1.00;;;;;;4921412;28;20478;-77
2022/03/23 11:00:28;;;;;;;23.10;20.83;;;32.70;1.00;;;;;;4926495;28;21891;-78
2022/03/23 11:02:55;;;;;;;22.83;20.80;;;32.60;1.00;;;;;;4926023;28;20514;-76
2022/03/23 11:05:37;;;;;;;23.13;20.97;;;32.50;1.00;;;;;;4931224;28;20482;-78
2022/03/23 11:08:11;;;;;;;25.60;23.00;;;32.00;1.00;;;;;;4924848;28;20474;-76
2022/03/23 11:16:10;;;;;;;24.07;21.60;;;33.70;1.00;;;;;;4920146;28;20427;-75
2022/03/23 11:18:37;;;;;;;23.00;20.93;;;34.40;1.00;;;;;;4927100;28;20510;-76
2022/03/23 11:21:07;;;;;;;22.17;19.87;;;34.40;1.00;;;;;;4942737;28;20427;-76
2022/03/23 11:23:37;;;;;;;22.67;20.77;;;34.30;1.00;;;;;;4944702;28;20466;-78
2022/03/23 11:26:08;;;;;;;23.87;19.50;;;34.30;1.00;;;;;;4943713;28;20432;-76
2022/03/23 11:28:37;;;;;;;21.87;19.97;;;34.50;1.00;;;;;;4946132;28;20431;-76
2022/03/23 11:31:07;;;;;;;22.23;20.33;;;34.90;1.00;;;;;;4950656;28;20512;-77
2022/03/23 11:33:37;;;;;;;22.13;19.87;;;35.20;1.00;;;;;;4946446;28;20452;-75
2022/03/23 11:36:09;;;;;;;22.50;20.40;;;35.50;1.00;;;;;;4933892;28;20430;-78
2022/03/23 11:38:37;;;;;;;22.83;20.60;;;35.50;1.00;;;;;;4928133;28;20434;-79
2022/03/23 11:41:06;;;;;;;23.73;21.57;;;35.00;1.00;;;;;;4920116;28;20476;-78
2022/03/23 11:43:36;;;;;;;24.90;22.40;;;35.30;1.00;;;;;;4913484;28;21088;-80
2022/03/23 11:46:07;;;;;;;22.20;20.20;;;35.30;1.00;;;;;;4926463;28;20421;-77
2022/03/23 11:48:59;;;;;;;24.13;21.30;;;35.90;1.00;;;;;;4919066;28;20442;-81
2022/03/23 11:51:51;;;;;;;22.50;20.20;;;35.90;1.00;;;;;;4921074;28;20428;-79
2022/03/23 11:55:37;;;;;;;22.30;20.27;;;36.50;1.00;;;;;;4917135;28;20473;-77
2022/03/23 11:57:46;;;;;;;22.93;20.73;;;36.50;1.00;;;;;;4910940;28;20474;-78
2022/03/23 12:00:17;;;;;;;22.97;20.97;;;36.30;1.00;;;;;;4926357;28;20477;-81
2022/03/23 12:02:45;;;;;;;23.47;21.10;;;36.50;1.00;;;;;;4919553;28;20451;-78
2022/03/23 12:05:26;;;;;;;23.40;21.07;;;37.10;1.00;;;;;;4949282;28;20429;-79
2022/03/23 12:07:57;;;;;;;22.60;20.53;;;37.70;1.00;;;;;;4943339;28;20416;-78
2022/03/23 12:10:26;;;;;;;22.37;20.47;;;38.00;1.00;;;;;;4947069;28;20469;-78
2022/03/23 12:13:14;;;;;;;22.47;20.43;;;38.10;1.00;;;;;;4949679;28;20435;-79
2022/03/23 12:15:57;;;;;;;22.20;20.10;;;38.00;1.00;;;;;;4924490;28;20509;-80
2022/03/23 12:18:40;;;;;;;22.33;20.27;;;37.30;1.00;;;;;;4930610;28;20475;-79
2022/03/23 12:21:14;;;;;;;23.27;21.37;;;37.30;1.00;;;;;;4923361;28;20460;-79
2022/03/23 12:23:58;;;;;;;22.63;20.60;;;37.60;1.00;;;;;;4937556;28;20460;-79
2022/03/23 12:26:36;;;;;;;22.37;20.43;;;37.70;1.00;;;;;;4932418;28;20467;-77
2022/03/23 12:29:13;;;;;;;21.10;19.30;;;37.20;1.00;;;;;;4933198;28;20556;-79
2022/03/23 12:31:43;;;;;;;23.43;21.27;;;36.80;1.00;;;;;;4927232;28;20508;-80
2022/03/23 12:34:26;;;;;;;21.63;19.73;;;37.10;1.00;;;;;;4926559;28;20512;-78
2022/03/23 12:36:59;;;;;;;22.07;20.00;;;37.70;1.00;;;;;;4922253;28;20487;-78
2022/03/23 12:39:39;;;;;;;22.73;20.70;;;38.30;1.00;;;;;;4928665;28;20461;-79
2022/03/23 12:42:24;;;;;;;23.10;20.93;;;38.90;1.00;;;;;;4927001;28;20456;-80
2022/03/23 12:45:09;;;;;;;22.90;20.80;;;39.40;1.00;;;;;;4922017;28;20609;-76
2022/03/23 12:47:39;;;;;;;23.60;21.40;;;39.20;1.00;;;;;;4926444;28;20477;-78
2022/03/23 12:58:45;;;;;;;25.03;22.83;;;37.70;1.00;;;;;;4923588;28;20545;-81
2022/03/23 13:01:17;;;;;;;24.30;22.30;;;37.20;1.00;;;;;;4928300;28;20419;-79
2022/03/23 13:04:01;;;;;;;24.87;22.80;;;37.10;1.00;;;;;;4933595;28;20551;-81
2022/03/23 13:06:37;;;;;;;24.97;22.87;;;37.60;1.00;;;;;;4933974;28;20462;-81
2022/03/23 13:09:15;;;;;;;25.30;23.20;;;38.00;1.00;;;;;;4938951;28;20476;-82
2022/03/23 13:11:57;;;;;;;27.20;24.80;;;38.00;1.00;;;;;;4937350;28;20511;-81
2022/03/23 13:14:24;;;;;;;24.07;22.27;;;38.60;1.00;;;;;;4938180;28;20484;-78
2022/03/23 13:16:57;;;;;;;23.23;21.40;;;38.90;1.00;;;;;;4926039;28;20488;-78
2022/03/23 13:19:26;;;;;;;24.87;22.57;;;38.80;1.00;;;;;;4931224;28;20476;-83
2022/03/23 13:21:56;;;;;;;25.13;22.70;;;38.70;1.00;;;;;;4929302;28;20426;-79
2022/03/23 13:24:27;;;;;;;22.10;20.13;;;38.90;1.00;;;;;;4921659;28;20478;-79
2022/03/23 13:26:57;;;;;;;22.30;20.43;;;39.50;1.00;;;;;;4929901;28;20446;-78
2022/03/23 13:29:25;;;;;;;22.43;20.50;;;40.00;1.00;;;;;;4935025;28;20525;-81
2022/03/23 13:32:04;;;;;;;23.47;21.30;;;40.00;1.00;;;;;;4932559;28;20471;-79
2022/03/23 13:34:37;;;;;;;24.20;22.03;;;39.40;1.00;;;;;;4931903;28;20418;-77
2022/03/23 13:37:05;;;;;;;24.10;21.93;;;38.00;1.00;;;;;;4929868;28;20869;-78